createdAt,value
2022-11-20T00:00:57.680Z,15.52
2022-11-20T00:03:26.143Z,17.85
2022-11-20T00:05:54.370Z,16.88
2022-11-20T00:08:24.261Z,15.70
2022-11-20T00:10:53.720Z,16.27
2022-11-20T00:13:22.020Z,15.45
2022-11-20T00:15:50.344Z,15.10
2022-11-20T00:18:18.659Z,17.92
2022-11-20T00:20:47.050Z,14.63
2022-11-20T00:23:15.577Z,16.38
2022-11-20T00:25:45.206Z,16.90
2022-11-20T00:28:13.498Z,15.57
2022-11-20T00:30:41.727Z,17.17
2022-11-20T00:33:10.085Z,14.95
2022-11-20T00:35:38.332Z,14.25
2022-11-20T00:38:06.620Z,13.73
2022-11-20T00:40:34.866Z,13.98
2022-11-20T00:43:04.558Z,14.73
2022-11-20T00:45:32.869Z,14.23
2022-11-20T00:48:01.030Z,13.80
2022-11-20T00:50:29.499Z,12.07
2022-11-20T00:52:57.700Z,12.88
2022-11-20T00:55:25.973Z,12.88
2022-11-20T00:57:54.454Z,14.45
2022-11-20T01:00:24.265Z,13.82
2022-11-20T01:02:52.608Z,13.30
2022-11-20T01:05:20.806Z,14.35
2022-11-20T01:07:48.993Z,12.23
2022-11-20T01:10:17.466Z,11.88
2022-11-20T01:13:05.733Z,11.63
2022-11-20T01:15:37.681Z,11.73
2022-11-20T01:18:06.560Z,11.50
2022-11-20T01:20:36.961Z,12.32
2022-11-20T01:23:05.373Z,10.80
2022-11-20T01:25:33.605Z,10.82
2022-11-20T01:28:01.871Z,10.80
2022-11-20T01:30:30.570Z,11.55
2022-11-20T01:33:00.249Z,10.48
2022-11-20T01:35:28.495Z,10.90
2022-11-20T01:37:56.866Z,10.40
2022-11-20T01:40:28.374Z,10.93
2022-11-20T01:43:24.121Z,12.40
2022-11-20T01:46:16.797Z,11.40
2022-11-20T01:48:50.264Z,10.75
2022-11-20T01:51:21.924Z,9.15
2022-11-20T01:53:50.506Z,11.30
2022-11-20T01:56:18.751Z,9.40
2022-11-20T01:58:49.041Z,9.85
2022-11-20T02:01:17.357Z,10.05
2022-11-20T02:03:47.145Z,10.38
2022-11-20T02:06:17.552Z,9.85
2022-11-20T02:08:45.777Z,9.85
2022-11-20T02:11:15.049Z,10.35
2022-11-20T02:13:44.946Z,9.95
2022-11-20T02:16:15.525Z,9.98
2022-11-20T02:18:44.021Z,9.20
2022-11-20T02:21:32.993Z,8.77
2022-11-20T02:24:04.972Z,10.18
2022-11-20T02:26:34.509Z,9.38
2022-11-20T02:29:03.057Z,9.50
2022-11-20T02:31:31.294Z,9.10
2022-11-20T02:33:59.613Z,11.35
2022-11-20T02:36:29.117Z,8.60
2022-11-20T02:38:57.621Z,8.52
2022-11-20T02:41:34.857Z,7.53
2022-11-20T02:44:03.129Z,9.23
2022-11-20T02:46:31.458Z,8.82
2022-11-20T02:48:59.679Z,9.52
2022-11-20T02:51:28.102Z,7.90
2022-11-20T02:53:56.418Z,8.10
2022-11-20T02:56:24.800Z,10.32
2022-11-20T02:58:54.497Z,8.60
2022-11-20T03:01:22.997Z,9.88
2022-11-20T03:03:51.284Z,11.20
2022-11-20T03:06:19.581Z,8.88
2022-11-20T03:08:47.801Z,11.73
2022-11-20T03:11:16.181Z,9.07
2022-11-20T03:13:44.507Z,7.70
2022-11-20T03:16:15.304Z,10.07
2022-11-20T03:18:44.184Z,7.88
2022-11-20T03:21:13.148Z,8.32
2022-11-20T03:23:41.464Z,8.55
2022-11-20T03:26:13.648Z,10.23
2022-11-20T03:28:43.844Z,8.13
2022-11-20T03:31:14.307Z,7.93
2022-11-20T03:33:42.989Z,7.45
2022-11-20T03:36:12.633Z,7.95
2022-11-20T03:38:40.980Z,8.85
2022-11-20T03:41:10.609Z,10.00
2022-11-20T03:43:39.165Z,8.48
2022-11-20T03:46:07.472Z,7.82
2022-11-20T03:48:37.702Z,8.65
2022-11-20T03:51:10.176Z,9.68
2022-11-20T03:53:38.416Z,8.23
2022-11-20T03:56:07.618Z,9.50
2022-11-20T03:58:36.280Z,7.95
2022-11-20T04:01:08.977Z,7.38
2022-11-20T04:03:38.740Z,9.63
2022-11-20T04:06:07.988Z,7.28
2022-11-20T04:08:36.304Z,7.25
2022-11-20T04:11:14.744Z,8.18
2022-11-20T04:13:43.177Z,7.00
2022-11-20T04:16:11.793Z,7.13
2022-11-20T04:18:41.534Z,8.43
2022-11-20T04:21:09.857Z,8.15
2022-11-20T04:23:38.192Z,6.80
2022-11-20T04:26:06.661Z,7.28
2022-11-20T04:28:35.194Z,7.90
2022-11-20T04:31:07.815Z,7.57
2022-11-20T04:33:36.245Z,9.18
2022-11-20T04:36:07.058Z,7.47
2022-11-20T04:38:35.349Z,7.70
2022-11-20T04:41:04.624Z,8.57
2022-11-20T04:43:33.040Z,8.68
2022-11-20T04:46:01.466Z,6.85
2022-11-20T04:48:30.234Z,8.70
2022-11-20T04:50:58.562Z,8.20
2022-11-20T04:53:28.230Z,24.70
2022-11-20T04:56:01.896Z,6.82
2022-11-20T04:58:30.295Z,6.35
2022-11-20T05:01:04.138Z,5.97
2022-11-20T05:03:32.534Z,7.60
2022-11-20T05:06:02.555Z,6.90
2022-11-20T05:08:32.500Z,6.22
2022-11-20T05:11:04.306Z,8.35
2022-11-20T05:13:32.724Z,7.53
2022-11-20T05:16:04.092Z,7.72
2022-11-20T05:18:32.743Z,7.97
2022-11-20T05:21:00.994Z,6.45
2022-11-20T05:23:29.345Z,5.82
2022-11-20T05:25:59.760Z,5.55
2022-11-20T05:28:28.730Z,6.20
2022-11-20T05:30:56.943Z,6.00
2022-11-20T05:33:25.345Z,5.72
2022-11-20T05:35:53.555Z,5.85
2022-11-20T05:38:21.853Z,6.22
2022-11-20T05:40:50.229Z,6.50
2022-11-20T05:43:20.107Z,5.88
2022-11-20T05:45:54.825Z,6.55
2022-11-20T05:48:23.191Z,7.22
2022-11-20T05:50:51.496Z,8.68
2022-11-20T05:53:20.119Z,9.88
2022-11-20T05:55:48.388Z,5.45
2022-11-20T05:58:16.602Z,8.73
2022-11-20T06:00:46.284Z,6.32
2022-11-20T06:03:14.566Z,6.10
2022-11-20T06:05:42.810Z,6.30
2022-11-20T06:08:10.985Z,5.30
2022-11-20T06:10:39.654Z,6.68
2022-11-20T06:13:08.153Z,6.78
2022-11-20T06:15:36.453Z,10.43
2022-11-20T06:18:06.462Z,13.57
2022-11-20T06:20:39.232Z,22.08
2022-11-20T06:23:10.201Z,17.42
2022-11-20T06:25:40.116Z,18.80
2022-11-20T06:28:08.395Z,22.50
2022-11-20T06:30:36.674Z,20.38
2022-11-20T06:33:06.447Z,25.35
2022-11-20T06:35:34.640Z,26.40
2022-11-20T06:38:03.100Z,26.08
2022-11-20T06:40:31.304Z,29.83
2022-11-20T06:42:59.534Z,38.88
2022-11-20T06:45:28.188Z,30.25
2022-11-20T06:47:56.562Z,26.33
2022-11-20T06:50:38.745Z,48.28
2022-11-20T06:53:07.074Z,48.00
2022-11-20T06:55:35.778Z,43.67
2022-11-20T06:58:04.073Z,57.53
2022-11-20T07:00:32.326Z,58.97
2022-11-20T07:03:00.830Z,64.72
2022-11-20T07:05:30.438Z,66.28
2022-11-20T07:07:58.862Z,76.75
2022-11-20T07:10:27.114Z,79.82
2022-11-20T07:12:55.339Z,82.22
2022-11-20T07:15:24.321Z,88.15
2022-11-20T07:17:52.521Z,97.78
2022-11-20T07:20:20.802Z,99.95
2022-11-20T07:22:55.927Z,101.57
2022-11-20T07:25:24.314Z,105.28
2022-11-20T07:27:52.453Z,124.95
2022-11-20T07:30:20.904Z,114.85
2022-11-20T07:32:49.294Z,118.93
2022-11-20T07:35:17.656Z,112.45
2022-11-20T07:37:46.832Z,109.05
2022-11-20T07:40:16.630Z,116.45
2022-11-20T07:42:50.329Z,118.80
2022-11-20T07:45:18.789Z,118.07
2022-11-20T07:47:47.011Z,124.40
2022-11-20T07:50:15.615Z,127.82
2022-11-20T07:52:43.861Z,124.32
2022-11-20T07:55:12.335Z,117.72
2022-11-20T07:57:42.198Z,119.60
2022-11-20T08:00:12.129Z,118.22
2022-11-20T08:02:41.254Z,117.85
2022-11-20T08:05:10.221Z,115.40
2022-11-20T08:07:39.561Z,109.15
2022-11-20T08:10:08.985Z,110.80
2022-11-20T08:12:54.574Z,116.38
2022-11-20T08:15:25.281Z,113.28
2022-11-20T08:18:23.326Z,122.38
2022-11-20T08:20:42.230Z,122.32
2022-11-20T08:23:10.701Z,120.53
2022-11-20T08:25:39.586Z,114.68
2022-11-20T08:28:19.902Z,118.30
2022-11-20T08:30:51.545Z,112.40
2022-11-20T08:33:20.211Z,116.75
2022-11-20T08:35:48.408Z,119.35
2022-11-20T08:38:16.769Z,124.47
2022-11-20T08:41:06.412Z,147.90
2022-11-20T08:43:34.716Z,121.65
2022-11-20T08:46:04.417Z,130.48
2022-11-20T08:48:32.976Z,144.60
2022-11-20T08:51:01.579Z,134.95
2022-11-20T08:53:29.833Z,139.00
2022-11-20T08:55:59.120Z,153.57
2022-11-20T08:58:27.421Z,140.30
2022-11-20T09:00:55.781Z,138.18
2022-11-20T09:03:32.612Z,132.90
2022-11-20T09:06:02.463Z,138.18
2022-11-20T09:08:30.687Z,135.65
2022-11-20T09:10:59.189Z,140.65
2022-11-20T09:13:28.085Z,137.45
2022-11-20T09:15:57.971Z,132.52
2022-11-20T09:18:27.968Z,129.82
2022-11-20T09:20:58.871Z,127.55
2022-11-20T09:23:27.174Z,125.25
2022-11-20T09:25:57.956Z,115.25
2022-11-20T09:28:26.276Z,115.43
2022-11-20T09:30:54.684Z,110.93
2022-11-20T09:33:23.277Z,116.80
2022-11-20T09:35:52.977Z,96.65
2022-11-20T09:38:21.478Z,109.97
2022-11-20T09:40:52.905Z,104.97
2022-11-20T09:43:22.164Z,102.35
2022-11-20T09:45:56.932Z,100.03
2022-11-20T09:48:35.377Z,99.35
2022-11-20T09:51:09.797Z,100.35
2022-11-20T09:53:42.605Z,111.82
2022-11-20T09:56:11.263Z,100.28
2022-11-20T09:58:43.824Z,99.63
2022-11-20T10:01:14.511Z,103.70
2022-11-20T10:03:48.775Z,103.32
2022-11-20T10:06:20.384Z,99.30
2022-11-20T10:08:52.289Z,92.80
2022-11-20T10:11:24.432Z,97.80
2022-11-20T10:13:55.929Z,96.05
2022-11-20T10:16:28.965Z,94.88
2022-11-20T10:19:04.264Z,95.43
2022-11-20T10:21:38.226Z,93.93
2022-11-20T10:24:41.993Z,89.45
2022-11-20T10:27:28.865Z,88.65
2022-11-20T10:30:02.263Z,83.13
2022-11-20T10:32:35.097Z,86.88
2022-11-20T10:35:04.177Z,91.90
2022-11-20T10:37:34.287Z,84.97
2022-11-20T10:40:04.117Z,88.72
2022-11-20T10:42:34.205Z,87.03
2022-11-20T10:45:07.002Z,84.28
2022-11-20T10:47:35.450Z,92.63
2022-11-20T10:50:05.093Z,88.40
2022-11-20T10:52:37.969Z,93.65
2022-11-20T10:55:10.419Z,85.88
2022-11-20T10:57:49.344Z,88.88
2022-11-20T11:00:18.489Z,80.95
2022-11-20T11:02:48.811Z,82.22
2022-11-20T11:05:36.303Z,81.68
2022-11-20T11:08:06.305Z,78.38
2022-11-20T11:10:37.921Z,77.78
2022-11-20T11:13:06.266Z,76.53
2022-11-20T11:15:40.156Z,74.70
2022-11-20T11:18:11.189Z,76.80
2022-11-20T11:20:39.501Z,73.15
2022-11-20T11:23:13.792Z,69.53
2022-11-20T11:25:42.342Z,74.80
2022-11-20T11:28:22.552Z,74.18
2022-11-20T11:30:51.043Z,69.13
2022-11-20T11:33:21.749Z,72.85
2022-11-20T11:35:51.856Z,68.47
2022-11-20T11:38:23.889Z,69.20
2022-11-20T11:40:52.216Z,66.00
2022-11-20T11:43:37.953Z,64.80
2022-11-20T11:46:08.593Z,66.45
2022-11-20T11:48:37.077Z,65.75
2022-11-20T11:51:05.358Z,64.05
2022-11-20T11:53:43.057Z,63.42
2022-11-20T11:56:12.095Z,62.42
2022-11-20T11:58:46.124Z,59.58
2022-11-20T12:01:23.039Z,61.83
2022-11-20T12:03:55.941Z,61.25
2022-11-20T12:06:26.128Z,58.65
2022-11-20T12:08:57.261Z,59.40
2022-11-20T12:11:30.923Z,58.60
2022-11-20T12:14:02.985Z,60.00
2022-11-20T12:16:31.508Z,55.55
2022-11-20T12:18:59.710Z,54.00
2022-11-20T12:21:33.225Z,56.58
2022-11-20T12:24:28.788Z,54.70
2022-11-20T12:27:03.726Z,53.10
2022-11-20T12:29:39.840Z,52.80
2022-11-20T12:32:22.632Z,52.55
2022-11-20T12:34:55.784Z,50.33
2022-11-20T12:37:32.565Z,49.35
2022-11-20T12:40:04.845Z,49.22
2022-11-20T12:43:00.212Z,47.72
2022-11-20T12:45:49.287Z,46.08
2022-11-20T12:49:05.060Z,46.90
2022-11-20T12:51:42.392Z,46.22
2022-11-20T12:54:30.760Z,45.15
2022-11-20T12:57:04.178Z,47.40
2022-11-20T12:59:41.801Z,44.80
2022-11-20T13:02:16.847Z,45.03
2022-11-20T13:04:56.873Z,43.20
2022-11-20T13:07:25.328Z,42.97
2022-11-20T13:09:53.590Z,44.60
2022-11-20T13:12:27.916Z,42.95
2022-11-20T13:14:58.279Z,42.75
2022-11-20T13:17:30.848Z,42.33
2022-11-20T13:19:59.867Z,41.30
2022-11-20T13:22:28.793Z,43.20
2022-11-20T13:24:57.067Z,42.90
2022-11-20T13:27:26.866Z,46.30
2022-11-20T13:30:03.156Z,47.92
2022-11-20T13:32:34.255Z,46.38
2022-11-20T13:35:03.180Z,48.97
2022-11-20T13:37:33.210Z,49.33
2022-11-20T13:40:14.075Z,50.38
2022-11-20T13:42:46.538Z,52.00
2022-11-20T13:45:24.495Z,54.17
2022-11-20T13:47:53.192Z,52.53
2022-11-20T13:50:21.898Z,50.30
2022-11-20T13:52:53.073Z,55.97
2022-11-20T13:55:23.601Z,55.58
2022-11-20T13:58:02.241Z,52.35
2022-11-20T14:00:30.595Z,56.03
2022-11-20T14:03:13.317Z,51.88
2022-11-20T14:05:51.111Z,51.42
2022-11-20T14:08:25.687Z,51.88
2022-11-20T14:10:54.290Z,49.50
2022-11-20T14:13:24.110Z,49.17
2022-11-20T14:15:59.194Z,47.88
2022-11-20T14:18:28.873Z,47.70
2022-11-20T14:20:57.201Z,44.83
2022-11-20T14:23:29.758Z,44.70
2022-11-20T14:25:58.637Z,43.75
2022-11-20T14:28:29.565Z,43.67
2022-11-20T14:30:57.843Z,38.28
2022-11-20T14:33:26.597Z,39.05
2022-11-20T14:35:56.017Z,38.92
2022-11-20T14:38:26.884Z,37.08
2022-11-20T14:40:55.159Z,40.75
2022-11-20T14:43:25.372Z,37.13
2022-11-20T14:45:58.503Z,36.22
2022-11-20T14:48:31.617Z,34.08
2022-11-20T14:51:00.242Z,34.33
2022-11-20T14:53:28.754Z,34.47
2022-11-20T14:55:59.160Z,32.00
2022-11-20T14:58:28.642Z,32.22
2022-11-20T15:00:58.869Z,31.70
2022-11-20T15:03:33.776Z,31.33
2022-11-20T15:06:02.213Z,33.20
2022-11-20T15:08:30.993Z,29.70
2022-11-20T15:10:59.387Z,34.15
2022-11-20T15:13:29.399Z,38.97
2022-11-20T15:15:59.268Z,40.22
2022-11-20T15:18:30.052Z,37.15
2022-11-20T15:20:58.772Z,43.20
2022-11-20T15:23:27.228Z,38.17
2022-11-20T15:25:55.670Z,40.55
2022-11-20T15:28:25.650Z,40.55
2022-11-20T15:30:54.326Z,42.63
2022-11-20T15:33:24.349Z,42.53
2022-11-20T15:35:52.774Z,44.05
2022-11-20T15:38:21.466Z,48.35
2022-11-20T15:40:49.805Z,44.42
2022-11-20T15:43:18.017Z,45.97
2022-11-20T15:45:47.123Z,45.60
2022-11-20T15:48:16.687Z,45.60
2022-11-20T15:50:53.904Z,44.78
2022-11-20T15:53:22.321Z,44.15
2022-11-20T15:55:50.577Z,41.00
2022-11-20T15:58:19.124Z,44.35
2022-11-20T16:00:47.574Z,43.47
2022-11-20T16:03:16.622Z,40.33
2022-11-20T16:05:46.366Z,41.33
2022-11-20T16:08:14.688Z,45.53
2022-11-20T16:10:43.154Z,41.65
2022-11-20T16:13:32.546Z,40.00
2022-11-20T16:16:02.456Z,39.53
2022-11-20T16:18:30.716Z,40.80
2022-11-20T16:21:00.459Z,36.67
2022-11-20T16:23:28.797Z,37.65
2022-11-20T16:25:57.132Z,39.03
2022-11-20T16:28:25.332Z,38.10
2022-11-20T16:30:53.668Z,37.63
2022-11-20T16:33:21.877Z,35.03
2022-11-20T16:35:50.191Z,35.20
2022-11-20T16:38:20.549Z,37.63
2022-11-20T16:40:48.846Z,36.08
2022-11-20T16:43:17.015Z,35.17
2022-11-20T16:45:46.155Z,34.72
2022-11-20T16:48:15.519Z,35.25
2022-11-20T16:50:53.344Z,33.47
2022-11-20T16:53:23.461Z,32.70
2022-11-20T16:55:51.815Z,33.67
2022-11-20T16:58:20.050Z,31.55
2022-11-20T17:00:51.715Z,33.00
2022-11-20T17:03:21.191Z,32.00
2022-11-20T17:05:49.547Z,32.17
2022-11-20T17:08:17.857Z,33.20
2022-11-20T17:10:47.529Z,30.98
2022-11-20T17:13:15.820Z,29.48
2022-11-20T17:15:44.075Z,29.38
2022-11-20T17:18:13.029Z,28.25
2022-11-20T17:20:41.378Z,29.65
2022-11-20T17:23:09.794Z,29.30
2022-11-20T17:25:38.219Z,29.05
2022-11-20T17:28:08.160Z,29.05
2022-11-20T17:30:36.484Z,28.23
2022-11-20T17:33:04.963Z,26.45
2022-11-20T17:35:33.325Z,28.05
2022-11-20T17:38:01.875Z,26.65
2022-11-20T17:40:30.344Z,28.60
2022-11-20T17:42:58.619Z,25.88
2022-11-20T17:45:28.287Z,26.35
2022-11-20T17:47:56.647Z,23.27
2022-11-20T17:50:25.562Z,27.33
2022-11-20T17:53:07.294Z,29.42
2022-11-20T17:55:55.288Z,34.95
2022-11-20T17:58:24.034Z,33.47
2022-11-20T18:00:53.689Z,34.20
2022-11-20T18:03:22.126Z,34.38
2022-11-20T18:05:50.365Z,41.28
2022-11-20T18:08:18.601Z,39.25
2022-11-20T18:10:47.664Z,35.75
2022-11-20T18:13:16.329Z,35.15
2022-11-20T18:15:44.837Z,36.88
2022-11-20T18:18:14.841Z,33.33
2022-11-20T18:20:43.243Z,34.83
2022-11-20T18:23:11.810Z,34.15
2022-11-20T18:25:40.103Z,37.03
2022-11-20T18:28:08.307Z,31.27
2022-11-20T18:30:37.907Z,34.28
2022-11-20T18:33:07.201Z,34.33
2022-11-20T18:35:36.914Z,32.00
2022-11-20T18:38:05.206Z,32.38
2022-11-20T18:40:35.709Z,29.35
2022-11-20T18:43:21.245Z,34.20
2022-11-20T18:45:49.704Z,30.92
2022-11-20T18:48:18.100Z,31.88
2022-11-20T18:50:47.994Z,31.90
2022-11-20T18:53:16.300Z,27.67
2022-11-20T18:55:44.553Z,31.15
2022-11-20T18:58:12.889Z,33.97
2022-11-20T19:00:41.119Z,34.83
2022-11-20T19:03:09.547Z,36.28
2022-11-20T19:05:38.581Z,37.78
2022-11-20T19:08:09.366Z,42.15
2022-11-20T19:10:37.872Z,39.70
2022-11-20T19:13:08.138Z,38.25
2022-11-20T19:15:37.833Z,42.72
2022-11-20T19:18:06.850Z,41.80
2022-11-20T19:20:35.174Z,45.55
2022-11-20T19:23:03.600Z,46.03
2022-11-20T19:25:37.970Z,48.08
2022-11-20T19:28:07.157Z,44.28
2022-11-20T19:30:35.583Z,49.55
2022-11-20T19:33:03.932Z,44.05
2022-11-20T19:35:32.293Z,44.50
2022-11-20T19:38:05.345Z,42.42
2022-11-20T19:40:35.440Z,41.80
2022-11-20T19:43:04.077Z,42.15
2022-11-20T19:45:32.502Z,41.75
2022-11-20T19:48:07.646Z,43.70
2022-11-20T19:50:36.799Z,43.38
2022-11-20T19:53:05.040Z,47.05
2022-11-20T19:55:33.728Z,40.38
2022-11-20T19:58:03.941Z,41.03
2022-11-20T20:00:32.993Z,40.22
2022-11-20T20:03:01.752Z,38.65
2022-11-20T20:05:29.995Z,38.75
2022-11-20T20:07:58.509Z,42.22
2022-11-20T20:10:26.796Z,38.72
2022-11-20T20:12:55.497Z,39.70
2022-11-20T20:15:25.369Z,38.72
2022-11-20T20:17:53.826Z,38.63
2022-11-20T20:20:22.170Z,40.63
2022-11-20T20:22:51.122Z,39.58
2022-11-20T20:25:19.703Z,46.28
2022-11-20T20:27:47.966Z,50.13
2022-11-20T20:30:16.653Z,49.30
2022-11-20T20:32:46.422Z,47.90
2022-11-20T20:35:14.798Z,51.45
2022-11-20T20:37:43.159Z,53.30
2022-11-20T20:40:15.323Z,55.25
2022-11-20T20:42:44.141Z,51.95
2022-11-20T20:45:12.656Z,53.75
2022-11-20T20:47:41.600Z,60.38
2022-11-20T20:50:13.331Z,52.65
2022-11-20T20:52:41.793Z,55.45
2022-11-20T20:55:10.779Z,58.17
2022-11-20T20:57:39.089Z,55.47
2022-11-20T21:00:08.917Z,53.90
2022-11-20T21:02:37.580Z,53.80
2022-11-20T21:05:06.573Z,52.05
2022-11-20T21:07:56.254Z,59.72
2022-11-20T21:10:24.471Z,50.15
2022-11-20T21:12:52.624Z,51.75
2022-11-20T21:15:20.817Z,55.75
2022-11-20T21:17:49.261Z,52.05
2022-11-20T21:20:31.557Z,50.85
2022-11-20T21:23:01.285Z,50.22
2022-11-20T21:25:29.579Z,50.13
2022-11-20T21:27:57.878Z,47.05
2022-11-20T21:30:26.259Z,50.28
2022-11-20T21:32:54.556Z,48.38
2022-11-20T21:35:24.766Z,46.55
2022-11-20T21:37:53.101Z,49.03
2022-11-20T21:40:24.837Z,47.75
2022-11-20T21:42:54.513Z,47.53
2022-11-20T21:45:23.014Z,46.58
2022-11-20T21:47:51.412Z,43.80
2022-11-20T21:50:19.701Z,44.17
2022-11-20T21:52:47.840Z,45.53
2022-11-20T21:55:16.272Z,43.53
2022-11-20T21:57:46.044Z,39.78
2022-11-20T22:00:15.236Z,41.95
2022-11-20T22:02:43.577Z,42.92
2022-11-20T22:05:11.872Z,41.78
2022-11-20T22:07:43.936Z,42.75
2022-11-20T22:10:18.132Z,39.30
2022-11-20T22:12:48.428Z,39.20
2022-11-20T22:15:23.854Z,38.38
2022-11-20T22:18:18.188Z,38.55
2022-11-20T22:20:46.397Z,38.13
2022-11-20T22:23:14.648Z,37.35
2022-11-20T22:25:42.930Z,38.72
2022-11-20T22:28:13.150Z,44.40
2022-11-20T22:30:41.485Z,38.10
2022-11-20T22:33:13.472Z,39.08
2022-11-20T22:35:42.302Z,36.03
2022-11-20T22:38:10.509Z,37.08
2022-11-20T22:40:38.825Z,35.80
2022-11-20T22:43:07.109Z,33.33
2022-11-20T22:45:36.786Z,34.72
2022-11-20T22:48:05.712Z,32.60
2022-11-20T22:50:33.927Z,33.85
2022-11-20T22:53:02.289Z,32.80
2022-11-20T22:55:30.517Z,33.50
2022-11-20T22:57:58.848Z,32.72
2022-11-20T23:00:27.093Z,32.17
2022-11-20T23:02:56.911Z,32.45
2022-11-20T23:05:25.374Z,31.83
2022-11-20T23:07:53.847Z,32.38
2022-11-20T23:10:22.080Z,29.58
2022-11-20T23:12:50.266Z,32.83
2022-11-20T23:15:18.530Z,30.20
2022-11-20T23:17:46.945Z,31.27
2022-11-20T23:20:16.932Z,29.65
2022-11-20T23:22:45.205Z,30.73
2022-11-20T23:25:13.732Z,30.38
2022-11-20T23:27:42.016Z,29.17
2022-11-20T23:30:11.575Z,29.13
2022-11-20T23:32:39.809Z,29.10
2022-11-20T23:35:08.617Z,28.50
2022-11-20T23:37:38.314Z,29.63
2022-11-20T23:40:07.805Z,27.13
2022-11-20T23:42:36.076Z,26.95
2022-11-20T23:45:04.332Z,25.67
2022-11-20T23:47:32.656Z,40.85
2022-11-20T23:50:00.810Z,27.48
2022-11-20T23:52:29.137Z,26.42
2022-11-20T23:54:59.259Z,25.98
2022-11-20T23:57:27.592Z,24.75
2022-11-20T23:59:55.819Z,25.15
